createdAt,value
2023-03-12T00:00:20.192Z,10.70
2023-03-12T00:05:17.129Z,7.13
2023-03-12T00:10:15.217Z,6.32
2023-03-12T00:15:12.950Z,9.00
2023-03-12T00:20:11.587Z,7.30
2023-03-12T00:25:12.283Z,8.93
2023-03-12T00:30:11.361Z,8.02
2023-03-12T00:35:09.295Z,7.53
2023-03-12T00:40:08.601Z,13.23
2023-03-12T00:45:06.752Z,7.63
2023-03-12T00:50:04.347Z,9.77
2023-03-12T00:55:01.836Z,7.90
2023-03-12T00:59:58.630Z,5.65
2023-03-12T01:04:55.734Z,10.65
2023-03-12T01:09:52.555Z,8.48
2023-03-12T01:14:49.943Z,11.70
2023-03-12T01:19:46.764Z,7.45
2023-03-12T01:24:43.576Z,7.35
2023-03-12T01:29:40.506Z,7.75
2023-03-12T01:34:38.101Z,9.77
2023-03-12T01:39:35.077Z,6.00
2023-03-12T01:44:49.615Z,8.02
2023-03-12T01:49:49.349Z,8.43
2023-03-12T01:54:50.896Z,8.60
2023-03-12T01:59:52.606Z,7.35
2023-03-12T02:04:52.652Z,8.35
2023-03-12T02:09:50.673Z,16.60
2023-03-12T02:14:47.596Z,8.32
2023-03-12T02:19:56.850Z,6.93
2023-03-12T02:25:03.154Z,6.15
2023-03-12T02:30:02.541Z,6.68
2023-03-12T02:35:00.260Z,8.27
2023-03-12T02:40:03.258Z,4.90
2023-03-12T02:45:02.298Z,4.47
2023-03-12T02:49:59.182Z,5.47
2023-03-12T02:54:56.140Z,8.07
2023-03-12T02:59:52.954Z,6.85
2023-03-12T03:04:51.386Z,8.68
2023-03-12T03:09:48.283Z,6.40
2023-03-12T03:14:45.144Z,5.20
2023-03-12T03:19:43.124Z,9.65
2023-03-12T03:24:41.418Z,7.85
2023-03-12T03:29:38.164Z,4.60
2023-03-12T03:34:35.008Z,8.43
2023-03-12T03:39:32.302Z,8.07
2023-03-12T03:44:30.440Z,9.23
2023-03-12T03:49:27.446Z,7.75
2023-03-12T03:54:24.619Z,6.60
2023-03-12T03:59:34.978Z,5.53
2023-03-12T04:04:33.074Z,7.25
2023-03-12T04:09:30.285Z,8.73
2023-03-12T04:14:27.269Z,4.93
2023-03-12T04:19:24.214Z,4.85
2023-03-12T04:24:21.785Z,5.60
2023-03-12T04:29:19.712Z,5.40
2023-03-12T04:34:16.801Z,5.78
2023-03-12T04:39:18.598Z,4.93
2023-03-12T04:44:20.187Z,6.93
2023-03-12T04:49:17.253Z,8.50
2023-03-12T04:54:14.395Z,7.63
2023-03-12T04:59:13.179Z,4.97
2023-03-12T05:04:12.103Z,10.20
2023-03-12T05:09:09.061Z,8.02
2023-03-12T05:14:06.309Z,4.10
2023-03-12T05:19:03.672Z,6.68
2023-03-12T05:24:03.105Z,8.43
2023-03-12T05:29:00.964Z,5.32
2023-03-12T05:33:58.633Z,6.97
2023-03-12T05:38:56.648Z,4.97
2023-03-12T05:43:57.745Z,10.32
2023-03-12T05:48:55.133Z,7.00
2023-03-12T05:53:54.736Z,6.45
2023-03-12T05:58:51.952Z,5.65
2023-03-12T06:03:50.854Z,5.28
2023-03-12T06:08:48.927Z,3.92
2023-03-12T06:13:45.986Z,6.57
2023-03-12T06:18:42.984Z,7.43
2023-03-12T06:23:41.661Z,4.90
2023-03-12T06:28:41.793Z,4.53
2023-03-12T06:33:39.066Z,5.13
2023-03-12T06:38:36.504Z,7.70
2023-03-12T06:43:36.174Z,4.18
2023-03-12T06:48:36.176Z,5.75
2023-03-12T06:53:33.133Z,4.18
2023-03-12T06:58:30.003Z,7.68
2023-03-12T07:03:30.742Z,4.93
2023-03-12T07:08:30.509Z,3.75
2023-03-12T07:13:27.498Z,4.75
2023-03-12T07:18:26.436Z,7.13
2023-03-12T07:23:24.369Z,4.05
2023-03-12T07:28:22.425Z,4.88
2023-03-12T07:33:21.714Z,4.20
2023-03-12T07:38:19.721Z,3.55
2023-03-12T07:43:20.287Z,4.60
2023-03-12T07:48:19.661Z,5.93
2023-03-12T07:53:18.572Z,6.70
2023-03-12T07:58:18.072Z,4.15
2023-03-12T08:03:17.012Z,3.47
2023-03-12T08:08:17.001Z,4.53
2023-03-12T08:13:14.210Z,5.28
2023-03-12T08:18:11.508Z,6.55
2023-03-12T08:23:18.792Z,4.55
2023-03-12T08:28:41.841Z,3.65
2023-03-12T08:33:43.113Z,4.20
2023-03-12T08:38:50.354Z,5.70
2023-03-12T08:44:10.661Z,2.72
2023-03-12T08:49:11.541Z,5.13
2023-03-12T08:54:11.222Z,6.65
2023-03-12T08:59:24.711Z,3.88
2023-03-12T09:04:21.939Z,3.40
2023-03-12T09:09:24.465Z,3.13
2023-03-12T09:15:01.012Z,4.00
2023-03-12T09:19:39.722Z,4.93
2023-03-12T09:24:37.928Z,3.63
2023-03-12T09:29:37.979Z,6.45
2023-03-12T09:34:42.536Z,5.38
2023-03-12T09:39:41.138Z,5.68
2023-03-12T09:44:42.451Z,7.85
2023-03-12T09:49:44.492Z,4.10
2023-03-12T09:54:47.727Z,6.18
2023-03-12T09:59:44.773Z,6.88
2023-03-12T10:04:58.970Z,4.90
2023-03-12T10:10:24.778Z,3.83
2023-03-12T10:15:40.314Z,4.33
2023-03-12T10:20:58.304Z,6.57
2023-03-12T10:26:00.036Z,4.40
2023-03-12T10:31:01.827Z,11.60
2023-03-12T10:35:59.301Z,4.65
2023-03-12T10:40:57.091Z,5.57
2023-03-12T10:46:02.990Z,5.32
2023-03-12T10:51:05.550Z,7.13
2023-03-12T10:56:06.700Z,6.43
2023-03-12T11:01:05.802Z,6.95
2023-03-12T11:06:05.226Z,6.47
2023-03-12T11:11:05.285Z,5.20
2023-03-12T11:16:24.364Z,3.70
2023-03-12T11:21:21.411Z,5.78
2023-03-12T11:26:22.384Z,5.32
2023-03-12T11:31:24.366Z,5.35
2023-03-12T11:36:43.266Z,5.13
2023-03-12T11:41:54.541Z,5.45
2023-03-12T11:47:03.787Z,5.15
2023-03-12T11:52:05.062Z,5.07
2023-03-12T11:57:06.929Z,6.88
2023-03-12T12:02:19.349Z,4.63
2023-03-12T12:07:25.545Z,6.97
2023-03-12T12:12:42.218Z,5.78
2023-03-12T12:17:54.490Z,5.30
2023-03-12T12:23:18.818Z,7.18
2023-03-12T12:28:33.632Z,8.43
2023-03-12T12:33:45.952Z,7.87
2023-03-12T12:38:47.051Z,6.85
2023-03-12T12:43:49.001Z,4.50
2023-03-12T12:48:50.624Z,6.00
2023-03-12T12:53:56.186Z,4.35
2023-03-12T12:59:10.283Z,4.53
2023-03-12T13:04:13.814Z,3.13
2023-03-12T13:09:15.888Z,4.82
2023-03-12T13:14:30.563Z,4.00
2023-03-12T13:19:27.884Z,5.23
2023-03-12T13:24:30.068Z,2.90
2023-03-12T13:29:41.018Z,5.25
2023-03-12T13:34:47.082Z,4.28
2023-03-12T13:39:45.481Z,3.70
2023-03-12T13:44:48.094Z,6.90
2023-03-12T13:49:52.125Z,2.70
2023-03-12T13:55:00.514Z,5.85
2023-03-12T14:00:05.147Z,3.25
2023-03-12T14:05:08.530Z,3.85
2023-03-12T14:10:19.782Z,6.03
2023-03-12T14:15:29.383Z,4.00
2023-03-12T14:20:28.840Z,3.08
2023-03-12T14:25:36.790Z,4.38
2023-03-12T14:30:44.709Z,6.53
2023-03-12T14:35:47.475Z,5.72
2023-03-12T14:40:50.639Z,4.88
2023-03-12T14:45:54.097Z,6.38
2023-03-12T14:50:51.291Z,6.78
2023-03-12T14:56:01.045Z,4.90
2023-03-12T15:01:00.581Z,6.80
2023-03-12T15:05:58.433Z,8.60
2023-03-12T15:10:59.591Z,3.63
2023-03-12T15:15:57.075Z,5.93
2023-03-12T15:20:57.120Z,6.07
2023-03-12T15:26:15.411Z,3.75
2023-03-12T15:31:15.400Z,3.88
2023-03-12T15:36:27.961Z,5.57
2023-03-12T15:41:28.110Z,4.85
2023-03-12T15:46:26.231Z,5.68
2023-03-12T15:51:35.507Z,4.22
2023-03-12T15:56:35.349Z,6.38
2023-03-12T16:01:45.125Z,2.65
2023-03-12T16:06:45.380Z,5.20
2023-03-12T16:11:42.592Z,2.10
2023-03-12T16:16:41.925Z,3.85
2023-03-12T16:21:38.790Z,7.20
2023-03-12T16:26:42.465Z,7.82
2023-03-12T16:31:39.385Z,3.30
2023-03-12T16:36:36.241Z,3.20
2023-03-12T16:41:33.305Z,3.05
2023-03-12T16:46:31.967Z,4.07
2023-03-12T16:51:29.047Z,4.95
2023-03-12T16:56:27.700Z,12.40
2023-03-12T17:01:28.641Z,5.82
2023-03-12T17:06:26.984Z,6.25
2023-03-12T17:11:26.807Z,6.63
2023-03-12T17:16:24.515Z,5.55
2023-03-12T17:21:22.487Z,7.65
2023-03-12T17:26:20.052Z,3.22
2023-03-12T17:31:17.099Z,6.05
2023-03-12T17:36:14.078Z,8.80
2023-03-12T17:41:25.470Z,6.93
2023-03-12T17:46:24.065Z,9.88
2023-03-12T17:51:21.105Z,10.95
2023-03-12T17:56:18.815Z,20.25
2023-03-12T18:01:17.025Z,18.42
2023-03-12T18:06:14.470Z,17.27
2023-03-12T18:11:11.310Z,25.88
2023-03-12T18:16:09.552Z,17.33
2023-03-12T18:21:06.545Z,33.33
2023-03-12T18:26:04.887Z,31.67
2023-03-12T18:31:02.014Z,31.73
2023-03-12T18:35:59.084Z,28.25
2023-03-12T18:41:04.327Z,32.15
2023-03-12T18:46:02.497Z,31.15
2023-03-12T18:50:59.634Z,27.25
2023-03-12T18:55:58.276Z,35.13
2023-03-12T19:00:56.852Z,34.45
2023-03-12T19:06:02.452Z,35.47
2023-03-12T19:10:59.429Z,38.28
2023-03-12T19:16:01.070Z,33.70
2023-03-12T19:20:58.002Z,43.58
2023-03-12T19:25:55.668Z,42.35
2023-03-12T19:30:59.388Z,47.88
2023-03-12T19:35:57.019Z,51.88
2023-03-12T19:40:57.914Z,54.97
2023-03-12T19:45:55.541Z,47.20
2023-03-12T19:50:53.224Z,52.05
2023-03-12T19:55:50.602Z,46.50
2023-03-12T20:00:49.465Z,64.82
2023-03-12T20:05:47.099Z,53.47
2023-03-12T20:10:44.229Z,67.05
2023-03-12T20:15:44.643Z,65.07
2023-03-12T20:20:42.727Z,62.13
2023-03-12T20:25:41.973Z,43.35
2023-03-12T20:30:40.067Z,63.97
2023-03-12T20:35:37.261Z,47.35
2023-03-12T20:40:35.061Z,50.67
2023-03-12T20:45:32.713Z,45.15
2023-03-12T20:50:29.669Z,41.97
2023-03-12T20:55:26.538Z,40.72
2023-03-12T21:00:24.308Z,44.83
2023-03-12T21:05:23.913Z,39.72
2023-03-12T21:10:22.037Z,37.88
2023-03-12T21:15:19.281Z,46.45
2023-03-12T21:20:18.118Z,52.30
2023-03-12T21:25:15.192Z,50.78
2023-03-12T21:30:12.986Z,43.28
2023-03-12T21:35:10.905Z,37.50
2023-03-12T21:40:10.504Z,37.92
2023-03-12T21:45:09.435Z,32.95
2023-03-12T21:50:08.897Z,40.08
2023-03-12T21:55:07.937Z,27.23
2023-03-12T22:00:12.236Z,26.80
2023-03-12T22:05:10.122Z,31.65
2023-03-12T22:10:11.121Z,25.08
2023-03-12T22:15:10.798Z,17.80
2023-03-12T22:20:09.469Z,16.00
2023-03-12T22:25:07.018Z,16.15
2023-03-12T22:30:04.979Z,12.18
2023-03-12T22:35:02.698Z,12.40
2023-03-12T22:40:04.469Z,11.55
2023-03-12T22:45:01.496Z,10.50
2023-03-12T22:49:58.489Z,8.60
2023-03-12T22:54:56.177Z,13.40
2023-03-12T22:59:53.256Z,10.13
2023-03-12T23:04:50.273Z,10.38
2023-03-12T23:09:48.491Z,8.48
2023-03-12T23:14:46.074Z,8.02
2023-03-12T23:19:42.992Z,9.77
2023-03-12T23:24:39.984Z,8.77
2023-03-12T23:29:37.995Z,9.60
2023-03-12T23:34:35.653Z,9.93
2023-03-12T23:39:35.338Z,9.80
2023-03-12T23:44:38.313Z,11.30
2023-03-12T23:49:36.079Z,9.30
2023-03-12T23:54:33.238Z,10.13
2023-03-12T23:59:30.494Z,10.35
